Terminal Aerodrome Forecast
Issued by NWS

Home | Current Version | Previous Version | Text Only | Print | Product List | Glossary On
Versions: 1 2 3 4 5 6 7 8 9 10 11 12 13 14 15 16 17 18 19 20 21 22 23 24
467
FTAK31 PAJN 171138
TAFAYA
TAF
PAYA 171138Z 1712/1812 07006KT 6SM -SHRA VCTS SCT020CB OVC035
      TEMPO 1712/1716 VRB05KT 4SM -SHRASNPL BR BKN015 OVC020
     FM172000 07005KT 5SM -SHRASN BKN015 OVC025
     FM180300 04004KT P6SM VCSH BKN025 OVC040
      AMD LTD TO CLD VIS AND WIND=

USA.gov is the U.S. government's official web portal to all federal, state and local government web resources and services.